sensor_id;sensor_type;location;lat;lon;timestamp;pressure;altitude;pressure_sealevel;temperature;humidity
19457;BME280;9867;48.094;11.478;2023-04-22T00:00:37;94690.22;;;9.95;100.00
19457;BME280;9867;48.094;11.478;2023-04-22T00:03:07;94692.41;;;9.91;100.00
19457;BME280;9867;48.094;11.478;2023-04-22T00:05:36;94687.09;;;9.86;100.00
19457;BME280;9867;48.094;11.478;2023-04-22T00:08:04;94682.16;;;9.91;100.00
19457;BME280;9867;48.094;11.478;2023-04-22T00:10:32;94674.44;;;9.98;100.00
19457;BME280;9867;48.094;11.478;2023-04-22T00:13:00;94681.56;;;9.89;100.00
19457;BME280;9867;48.094;11.478;2023-04-22T00:15:28;94674.13;;;9.75;100.00
19457;BME280;9867;48.094;11.478;2023-04-22T00:17:57;94673.75;;;9.71;100.00
19457;BME280;9867;48.094;11.478;2023-04-22T00:20:27;94680.28;;;9.61;100.00
19457;BME280;9867;48.094;11.478;2023-04-22T00:22:57;94685.41;;;9.54;100.00
19457;BME280;9867;48.094;11.478;2023-04-22T00:25:25;94676.16;;;9.46;100.00
19457;BME280;9867;48.094;11.478;2023-04-22T00:27:53;94677.59;;;9.36;100.00
19457;BME280;9867;48.094;11.478;2023-04-22T00:30:21;94665.00;;;9.28;100.00
19457;BME280;9867;48.094;11.478;2023-04-22T00:32:49;94670.09;;;9.28;100.00
19457;BME280;9867;48.094;11.478;2023-04-22T00:35:17;94663.59;;;9.25;100.00
19457;BME280;9867;48.094;11.478;2023-04-22T00:37:46;94667.94;;;9.31;100.00
19457;BME280;9867;48.094;11.478;2023-04-22T00:40:14;94667.56;;;9.28;100.00
19457;BME280;9867;48.094;11.478;2023-04-22T00:42:45;94672.88;;;9.26;100.00
19457;BME280;9867;48.094;11.478;2023-04-22T00:45:15;94666.97;;;9.32;100.00
19457;BME280;9867;48.094;11.478;2023-04-22T00:47:44;94674.00;;;9.50;100.00
19457;BME280;9867;48.094;11.478;2023-04-22T00:50:12;94673.16;;;9.69;100.00
19457;BME280;9867;48.094;11.478;2023-04-22T00:52:40;94674.69;;;9.83;100.00
19457;BME280;9867;48.094;11.478;2023-04-22T00:55:10;94675.59;;;9.44;100.00
19457;BME280;9867;48.094;11.478;2023-04-22T00:57:39;94672.91;;;9.13;100.00
19457;BME280;9867;48.094;11.478;2023-04-22T01:00:07;94670.34;;;8.93;100.00
19457;BME280;9867;48.094;11.478;2023-04-22T01:02:38;94672.50;;;8.83;100.00
19457;BME280;9867;48.094;11.478;2023-04-22T01:05:08;94674.09;;;8.91;100.00
19457;BME280;9867;48.094;11.478;2023-04-22T01:07:36;94673.31;;;8.97;100.00
19457;BME280;9867;48.094;11.478;2023-04-22T01:10:05;94667.59;;;8.95;100.00
19457;BME280;9867;48.094;11.478;2023-04-22T01:12:34;94671.72;;;8.96;100.00
19457;BME280;9867;48.094;11.478;2023-04-22T01:15:03;94667.19;;;8.98;100.00
19457;BME280;9867;48.094;11.478;2023-04-22T01:17:31;94665.41;;;8.98;100.00
19457;BME280;9867;48.094;11.478;2023-04-22T01:19:59;94670.91;;;9.02;100.00
19457;BME280;9867;48.094;11.478;2023-04-22T01:22:31;94662.84;;;9.05;100.00
19457;BME280;9867;48.094;11.478;2023-04-22T01:25:03;94665.41;;;9.05;100.00
19457;BME280;9867;48.094;11.478;2023-04-22T01:27:32;94671.91;;;9.01;100.00
19457;BME280;9867;48.094;11.478;2023-04-22T01:30:02;94671.72;;;8.96;100.00
19457;BME280;9867;48.094;11.478;2023-04-22T01:32:30;94675.28;;;8.88;100.00
19457;BME280;9867;48.094;11.478;2023-04-22T01:34:58;94678.78;;;8.80;100.00
19457;BME280;9867;48.094;11.478;2023-04-22T01:37:27;94667.41;;;8.70;100.00
19457;BME280;9867;48.094;11.478;2023-04-22T01:39:56;94667.22;;;8.71;100.00
19457;BME280;9867;48.094;11.478;2023-04-22T01:42:25;94668.59;;;8.74;100.00
19457;BME280;9867;48.094;11.478;2023-04-22T01:44:53;94677.63;;;8.70;100.00
19457;BME280;9867;48.094;11.478;2023-04-22T01:47:21;94667.78;;;8.60;100.00
19457;BME280;9867;48.094;11.478;2023-04-22T01:49:50;94659.50;;;8.58;100.00
19457;BME280;9867;48.094;11.478;2023-04-22T01:52:18;94670.91;;;8.75;100.00
19457;BME280;9867;48.094;11.478;2023-04-22T01:54:47;94663.66;;;8.72;100.00
19457;BME280;9867;48.094;11.478;2023-04-22T01:57:15;94670.13;;;8.75;100.00
19457;BME280;9867;48.094;11.478;2023-04-22T01:59:44;94676.25;;;8.74;100.00
19457;BME280;9867;48.094;11.478;2023-04-22T02:02:13;94668.38;;;8.75;100.00
19457;BME280;9867;48.094;11.478;2023-04-22T02:04:41;94672.69;;;8.81;100.00
19457;BME280;9867;48.094;11.478;2023-04-22T02:07:09;94673.28;;;8.83;100.00
19457;BME280;9867;48.094;11.478;2023-04-22T02:09:37;94677.63;;;8.83;100.00
19457;BME280;9867;48.094;11.478;2023-04-22T02:12:05;94679.16;;;8.51;100.00
19457;BME280;9867;48.094;11.478;2023-04-22T02:14:33;94674.59;;;8.27;100.00
19457;BME280;9867;48.094;11.478;2023-04-22T02:17:03;94677.91;;;8.20;100.00
19457;BME280;9867;48.094;11.478;2023-04-22T02:19:31;94672.41;;;8.24;100.00
19457;BME280;9867;48.094;11.478;2023-04-22T02:22:00;94682.63;;;8.24;100.00
19457;BME280;9867;48.094;11.478;2023-04-22T02:24:28;94677.16;;;8.33;100.00
19457;BME280;9867;48.094;11.478;2023-04-22T02:26:57;94675.81;;;8.44;100.00
19457;BME280;9867;48.094;11.478;2023-04-22T02:29:26;94671.72;;;8.49;100.00
19457;BME280;9867;48.094;11.478;2023-04-22T02:31:57;94659.91;;;8.62;100.00
19457;BME280;9867;48.094;11.478;2023-04-22T02:34:27;94677.22;;;8.79;100.00
19457;BME280;9867;48.094;11.478;2023-04-22T02:36:55;94682.53;;;8.65;100.00
19457;BME280;9867;48.094;11.478;2023-04-22T02:39:24;94675.81;;;8.50;100.00
19457;BME280;9867;48.094;11.478;2023-04-22T02:41:52;94669.94;;;8.43;100.00
19457;BME280;9867;48.094;11.478;2023-04-22T02:44:20;94673.66;;;8.41;100.00
19457;BME280;9867;48.094;11.478;2023-04-22T02:46:48;94666.69;;;8.28;100.00
19457;BME280;9867;48.094;11.478;2023-04-22T02:49:16;94652.94;;;8.16;100.00
19457;BME280;9867;48.094;11.478;2023-04-22T02:51:46;94664.16;;;8.21;100.00
19457;BME280;9867;48.094;11.478;2023-04-22T02:54:14;94663.59;;;8.26;100.00
19457;BME280;9867;48.094;11.478;2023-04-22T02:56:41;94662.19;;;8.24;100.00
19457;BME280;9867;48.094;11.478;2023-04-22T02:59:09;94662.81;;;8.32;100.00
19457;BME280;9867;48.094;11.478;2023-04-22T03:01:37;94664.38;;;8.27;100.00
19457;BME280;9867;48.094;11.478;2023-04-22T03:04:09;94666.69;;;8.15;100.00
19457;BME280;9867;48.094;11.478;2023-04-22T03:06:37;94665.88;;;8.08;100.00
19457;BME280;9867;48.094;11.478;2023-04-22T03:09:10;94662.13;;;7.97;100.00
19457;BME280;9867;48.094;11.478;2023-04-22T03:11:37;94659.13;;;7.87;100.00
19457;BME280;9867;48.094;11.478;2023-04-22T03:14:05;94658.16;;;7.88;100.00
19457;BME280;9867;48.094;11.478;2023-04-22T03:16:37;94663.09;;;7.96;100.00
19457;BME280;9867;48.094;11.478;2023-04-22T03:19:06;94660.97;;;8.13;100.00
19457;BME280;9867;48.094;11.478;2023-04-22T03:21:34;94657.06;;;8.30;100.00
19457;BME280;9867;48.094;11.478;2023-04-22T03:24:02;94653.41;;;8.39;100.00
19457;BME280;9867;48.094;11.478;2023-04-22T03:26:33;94658.25;;;8.28;100.00
19457;BME280;9867;48.094;11.478;2023-04-22T03:29:02;94643.06;;;8.06;100.00
19457;BME280;9867;48.094;11.478;2023-04-22T03:31:30;94650.34;;;7.96;100.00
19457;BME280;9867;48.094;11.478;2023-04-22T03:33:58;94652.66;;;7.91;100.00
19457;BME280;9867;48.094;11.478;2023-04-22T03:36:29;94649.91;;;7.86;100.00
19457;BME280;9867;48.094;11.478;2023-04-22T03:38:56;94649.88;;;7.79;100.00
19457;BME280;9867;48.094;11.478;2023-04-22T03:41:25;94661.66;;;7.80;100.00
19457;BME280;9867;48.094;11.478;2023-04-22T03:43:54;94665.06;;;7.94;100.00
19457;BME280;9867;48.094;11.478;2023-04-22T03:46:25;94662.91;;;7.98;100.00
19457;BME280;9867;48.094;11.478;2023-04-22T03:49:08;94658.88;;;7.69;100.00
19457;BME280;9867;48.094;11.478;2023-04-22T03:51:36;94657.81;;;7.57;100.00
19457;BME280;9867;48.094;11.478;2023-04-22T03:54:09;94664.41;;;7.38;100.00
19457;BME280;9867;48.094;11.478;2023-04-22T03:56:44;94663.09;;;7.14;100.00
19457;BME280;9867;48.094;11.478;2023-04-22T03:59:13;94661.97;;;6.95;100.00
19457;BME280;9867;48.094;11.478;2023-04-22T04:01:41;94659.63;;;6.94;100.00
19457;BME280;9867;48.094;11.478;2023-04-22T04:04:09;94666.91;;;6.97;100.00
19457;BME280;9867;48.094;11.478;2023-04-22T04:06:44;94664.03;;;7.06;100.00
19457;BME280;9867;48.094;11.478;2023-04-22T04:09:12;94665.81;;;7.06;100.00
19457;BME280;9867;48.094;11.478;2023-04-22T04:11:40;94661.00;;;7.24;100.00
19457;BME280;9867;48.094;11.478;2023-04-22T04:14:09;94669.88;;;7.35;100.00
19457;BME280;9867;48.094;11.478;2023-04-22T04:16:45;94658.56;;;7.44;100.00
19457;BME280;9867;48.094;11.478;2023-04-22T04:19:22;94664.13;;;7.54;100.00
19457;BME280;9867;48.094;11.478;2023-04-22T04:21:50;94668.84;;;7.64;100.00
19457;BME280;9867;48.094;11.478;2023-04-22T04:24:19;94669.28;;;7.67;100.00
19457;BME280;9867;48.094;11.478;2023-04-22T04:26:49;94667.16;;;7.77;100.00
19457;BME280;9867;48.094;11.478;2023-04-22T04:29:22;94667.13;;;7.71;100.00
19457;BME280;9867;48.094;11.478;2023-04-22T04:32:02;94658.66;;;7.64;100.00
19457;BME280;9867;48.094;11.478;2023-04-22T04:34:32;94654.66;;;7.48;100.00
19457;BME280;9867;48.094;11.478;2023-04-22T04:37:04;94657.63;;;7.51;100.00
19457;BME280;9867;48.094;11.478;2023-04-22T04:39:43;94660.72;;;7.47;100.00
19457;BME280;9867;48.094;11.478;2023-04-22T04:42:12;94663.84;;;7.42;100.00
19457;BME280;9867;48.094;11.478;2023-04-22T04:44:49;94667.00;;;7.44;100.00
19457;BME280;9867;48.094;11.478;2023-04-22T04:47:20;94658.97;;;7.47;100.00
19457;BME280;9867;48.094;11.478;2023-04-22T04:49:50;94670.38;;;7.51;100.00
19457;BME280;9867;48.094;11.478;2023-04-22T04:52:20;94669.03;;;7.56;100.00
19457;BME280;9867;48.094;11.478;2023-04-22T04:54:48;94669.03;;;7.62;100.00
19457;BME280;9867;48.094;11.478;2023-04-22T04:57:16;94671.63;;;7.69;100.00
19457;BME280;9867;48.094;11.478;2023-04-22T04:59:44;94674.19;;;7.69;100.00
19457;BME280;9867;48.094;11.478;2023-04-22T05:02:12;94673.03;;;7.71;100.00
19457;BME280;9867;48.094;11.478;2023-04-22T05:04:42;94678.75;;;7.80;100.00
19457;BME280;9867;48.094;11.478;2023-04-22T05:07:10;94674.66;;;7.92;100.00
19457;BME280;9867;48.094;11.478;2023-04-22T05:09:39;94671.38;;;8.05;100.00
19457;BME280;9867;48.094;11.478;2023-04-22T05:12:08;94663.75;;;8.18;100.00
19457;BME280;9867;48.094;11.478;2023-04-22T05:14:36;94660.06;;;8.34;100.00
19457;BME280;9867;48.094;11.478;2023-04-22T05:17:03;94661.69;;;8.48;100.00
19457;BME280;9867;48.094;11.478;2023-04-22T05:19:32;94665.81;;;8.62;100.00
19457;BME280;9867;48.094;11.478;2023-04-22T05:22:02;94669.38;;;8.87;100.00
19457;BME280;9867;48.094;11.478;2023-04-22T05:24:30;94675.66;;;9.05;100.00
19457;BME280;9867;48.094;11.478;2023-04-22T05:26:58;94672.69;;;9.21;100.00
19457;BME280;9867;48.094;11.478;2023-04-22T05:29:27;94671.28;;;9.38;100.00
19457;BME280;9867;48.094;11.478;2023-04-22T05:31:55;94676.16;;;9.53;100.00
19457;BME280;9867;48.094;11.478;2023-04-22T05:34:23;94677.31;;;9.64;100.00
19457;BME280;9867;48.094;11.478;2023-04-22T05:36:52;94684.75;;;9.78;100.00
19457;BME280;9867;48.094;11.478;2023-04-22T05:39:22;94676.28;;;9.84;100.00
19457;BME280;9867;48.094;11.478;2023-04-22T05:41:50;94683.94;;;9.91;100.00
19457;BME280;9867;48.094;11.478;2023-04-22T05:44:21;94696.25;;;10.14;100.00
19457;BME280;9867;48.094;11.478;2023-04-22T05:46:48;94681.78;;;10.33;100.00
19457;BME280;9867;48.094;11.478;2023-04-22T05:49:18;94693.94;;;10.44;100.00
19457;BME280;9867;48.094;11.478;2023-04-22T05:52:05;94694.25;;;10.61;100.00
19457;BME280;9867;48.094;11.478;2023-04-22T05:54:46;94704.97;;;10.82;100.00
19457;BME280;9867;48.094;11.478;2023-04-22T05:57:15;94704.84;;;10.96;100.00
19457;BME280;9867;48.094;11.478;2023-04-22T05:59:43;94709.03;;;11.15;100.00
19457;BME280;9867;48.094;11.478;2023-04-22T06:02:11;94708.94;;;11.28;100.00
19457;BME280;9867;48.094;11.478;2023-04-22T06:04:41;94704.69;;;11.40;100.00
19457;BME280;9867;48.094;11.478;2023-04-22T06:07:09;94718.28;;;11.66;100.00
19457;BME280;9867;48.094;11.478;2023-04-22T06:09:38;94717.72;;;11.82;100.00
19457;BME280;9867;48.094;11.478;2023-04-22T06:12:09;94723.00;;;12.05;100.00
19457;BME280;9867;48.094;11.478;2023-04-22T06:14:38;94713.22;;;12.14;100.00
19457;BME280;9867;48.094;11.478;2023-04-22T06:17:06;94720.91;;;12.32;100.00
19457;BME280;9867;48.094;11.478;2023-04-22T06:19:35;94720.41;;;12.42;100.00
19457;BME280;9867;48.094;11.478;2023-04-22T06:22:03;94710.19;;;12.65;100.00
19457;BME280;9867;48.094;11.478;2023-04-22T06:24:31;94704.19;;;12.71;100.00
19457;BME280;9867;48.094;11.478;2023-04-22T06:26:59;94715.75;;;12.92;100.00
19457;BME280;9867;48.094;11.478;2023-04-22T06:29:29;94719.97;;;13.16;100.00
19457;BME280;9867;48.094;11.478;2023-04-22T06:31:57;94721.88;;;13.32;100.00
19457;BME280;9867;48.094;11.478;2023-04-22T06:34:25;94718.75;;;13.54;100.00
19457;BME280;9867;48.094;11.478;2023-04-22T06:36:54;94722.97;;;13.72;100.00
19457;BME280;9867;48.094;11.478;2023-04-22T06:39:22;94723.19;;;13.70;100.00
19457;BME280;9867;48.094;11.478;2023-04-22T06:42:02;94726.47;;;13.89;100.00
19457;BME280;9867;48.094;11.478;2023-04-22T06:45:05;94719.13;;;14.09;100.00
19457;BME280;9867;48.094;11.478;2023-04-22T06:47:41;94724.47;;;14.19;100.00
19457;BME280;9867;48.094;11.478;2023-04-22T06:50:15;94726.34;;;14.36;100.00
19457;BME280;9867;48.094;11.478;2023-04-22T06:52:56;94728.50;;;14.27;100.00
19457;BME280;9867;48.094;11.478;2023-04-22T06:55:23;94726.13;;;14.25;96.26
19457;BME280;9867;48.094;11.478;2023-04-22T06:57:51;94727.47;;;14.40;94.94
19457;BME280;9867;48.094;11.478;2023-04-22T07:00:21;94720.59;;;14.45;96.32
19457;BME280;9867;48.094;11.478;2023-04-22T07:02:48;94719.09;;;14.61;100.00
19457;BME280;9867;48.094;11.478;2023-04-22T07:05:17;94715.00;;;14.65;97.10
19457;BME280;9867;48.094;11.478;2023-04-22T07:07:45;94712.97;;;14.67;91.08
19457;BME280;9867;48.094;11.478;2023-04-22T07:10:18;94715.91;;;14.71;93.27
19457;BME280;9867;48.094;11.478;2023-04-22T07:13:05;94714.19;;;14.76;97.40
19457;BME280;9867;48.094;11.478;2023-04-22T07:15:35;94713.28;;;14.82;94.34
19457;BME280;9867;48.094;11.478;2023-04-22T07:18:03;94718.19;;;14.84;91.80
19457;BME280;9867;48.094;11.478;2023-04-22T07:20:31;94715.22;;;14.92;95.86
19457;BME280;9867;48.094;11.478;2023-04-22T07:22:58;94710.47;;;15.00;93.64
19457;BME280;9867;48.094;11.478;2023-04-22T07:25:27;94716.19;;;15.02;93.65
19457;BME280;9867;48.094;11.478;2023-04-22T07:27:54;94706.94;;;15.07;94.75
19457;BME280;9867;48.094;11.478;2023-04-22T07:30:22;94701.22;;;15.05;90.03
19457;BME280;9867;48.094;11.478;2023-04-22T07:32:52;94699.56;;;15.15;90.88
19457;BME280;9867;48.094;11.478;2023-04-22T07:35:20;94702.56;;;15.24;88.13
19457;BME280;9867;48.094;11.478;2023-04-22T07:37:47;94702.63;;;15.29;78.49
19457;BME280;9867;48.094;11.478;2023-04-22T07:40:15;94702.00;;;15.39;79.57
19457;BME280;9867;48.094;11.478;2023-04-22T07:42:45;94703.78;;;15.55;88.93
19457;BME280;9867;48.094;11.478;2023-04-22T07:45:13;94707.47;;;15.97;87.00
19457;BME280;9867;48.094;11.478;2023-04-22T07:47:41;94703.94;;;16.25;77.28
19457;BME280;9867;48.094;11.478;2023-04-22T07:50:10;94702.75;;;16.38;70.83
19457;BME280;9867;48.094;11.478;2023-04-22T07:52:38;94704.75;;;16.53;69.50
19457;BME280;9867;48.094;11.478;2023-04-22T07:55:07;94705.78;;;16.52;67.64
19457;BME280;9867;48.094;11.478;2023-04-22T07:57:35;94699.28;;;16.54;64.88
19457;BME280;9867;48.094;11.478;2023-04-22T08:00:05;94703.66;;;16.49;63.75
19457;BME280;9867;48.094;11.478;2023-04-22T08:02:40;94704.94;;;16.46;65.18
19457;BME280;9867;48.094;11.478;2023-04-22T08:05:11;94702.81;;;16.65;61.44
19457;BME280;9867;48.094;11.478;2023-04-22T08:07:39;94717.13;;;16.73;59.24
19457;BME280;9867;48.094;11.478;2023-04-22T08:10:07;94707.31;;;16.75;59.22
19457;BME280;9867;48.094;11.478;2023-04-22T08:12:36;94708.03;;;16.97;62.26
19457;BME280;9867;48.094;11.478;2023-04-22T08:15:04;94708.00;;;16.92;58.17
19457;BME280;9867;48.094;11.478;2023-04-22T08:17:33;94706.06;;;17.09;60.65
19457;BME280;9867;48.094;11.478;2023-04-22T08:20:00;94708.63;;;16.77;61.28
19457;BME280;9867;48.094;11.478;2023-04-22T08:22:34;94701.28;;;16.96;58.04
19457;BME280;9867;48.094;11.478;2023-04-22T08:25:02;94707.16;;;17.18;56.98
19457;BME280;9867;48.094;11.478;2023-04-22T08:27:30;94699.56;;;17.44;57.96
19457;BME280;9867;48.094;11.478;2023-04-22T08:29:58;94699.22;;;17.30;56.87
19457;BME280;9867;48.094;11.478;2023-04-22T08:32:25;94713.88;;;17.14;56.48
19457;BME280;9867;48.094;11.478;2023-04-22T08:34:53;94711.22;;;17.41;57.08
19457;BME280;9867;48.094;11.478;2023-04-22T08:37:30;94718.66;;;17.64;56.13
19457;BME280;9867;48.094;11.478;2023-04-22T08:39:59;94714.63;;;17.84;53.22
19457;BME280;9867;48.094;11.478;2023-04-22T08:42:27;94708.97;;;17.97;55.98
19457;BME280;9867;48.094;11.478;2023-04-22T08:44:56;94710.28;;;17.99;55.22
19457;BME280;9867;48.094;11.478;2023-04-22T08:47:24;94709.84;;;18.18;52.10
19457;BME280;9867;48.094;11.478;2023-04-22T08:49:54;94705.88;;;17.95;50.44
19457;BME280;9867;48.094;11.478;2023-04-22T08:52:22;94698.56;;;17.87;51.08
19457;BME280;9867;48.094;11.478;2023-04-22T08:54:50;94701.19;;;17.97;52.94
19457;BME280;9867;48.094;11.478;2023-04-22T08:57:22;94703.63;;;18.24;51.96
19457;BME280;9867;48.094;11.478;2023-04-22T08:59:50;94696.69;;;18.50;52.01
19457;BME280;9867;48.094;11.478;2023-04-22T09:02:22;94692.34;;;18.60;47.79
19457;BME280;9867;48.094;11.478;2023-04-22T09:04:52;94697.72;;;18.38;47.12
19457;BME280;9867;48.094;11.478;2023-04-22T09:07:22;94697.22;;;18.47;49.78
19457;BME280;9867;48.094;11.478;2023-04-22T09:09:51;94697.22;;;18.42;50.47
19457;BME280;9867;48.094;11.478;2023-04-22T09:12:19;94684.56;;;18.70;50.70
19457;BME280;9867;48.094;11.478;2023-04-22T09:14:49;94689.28;;;18.89;51.39
19457;BME280;9867;48.094;11.478;2023-04-22T09:17:17;94685.13;;;19.08;50.45
19457;BME280;9867;48.094;11.478;2023-04-22T09:19:45;94684.84;;;19.20;50.82
19457;BME280;9867;48.094;11.478;2023-04-22T09:22:23;94682.78;;;19.06;50.71
19457;BME280;9867;48.094;11.478;2023-04-22T09:24:52;94691.25;;;18.41;47.34
19457;BME280;9867;48.094;11.478;2023-04-22T09:27:23;94678.31;;;18.61;48.28
19457;BME280;9867;48.094;11.478;2023-04-22T09:29:58;94682.50;;;18.98;47.13
19457;BME280;9867;48.094;11.478;2023-04-22T09:32:26;94684.31;;;19.28;48.03
19457;BME280;9867;48.094;11.478;2023-04-22T09:34:55;94677.56;;;19.17;46.13
19457;BME280;9867;48.094;11.478;2023-04-22T09:37:24;94678.38;;;19.12;44.47
19457;BME280;9867;48.094;11.478;2023-04-22T09:40:08;94677.53;;;19.37;47.53
19457;BME280;9867;48.094;11.478;2023-04-22T09:42:47;94673.63;;;19.65;46.33
19457;BME280;9867;48.094;11.478;2023-04-22T09:45:28;94668.66;;;19.68;45.10
19457;BME280;9867;48.094;11.478;2023-04-22T09:47:59;94670.50;;;19.63;44.94
19457;BME280;9867;48.094;11.478;2023-04-22T09:50:27;94670.94;;;19.90;44.14
19457;BME280;9867;48.094;11.478;2023-04-22T09:53:03;94672.59;;;19.61;42.44
19457;BME280;9867;48.094;11.478;2023-04-22T09:55:32;94671.28;;;19.38;44.01
19457;BME280;9867;48.094;11.478;2023-04-22T09:58:05;94671.31;;;19.23;45.85
19457;BME280;9867;48.094;11.478;2023-04-22T10:00:39;94664.25;;;19.43;45.40
19457;BME280;9867;48.094;11.478;2023-04-22T10:03:07;94654.59;;;19.69;45.05
19457;BME280;9867;48.094;11.478;2023-04-22T10:05:36;94659.81;;;19.64;43.96
19457;BME280;9867;48.094;11.478;2023-04-22T10:08:05;94651.28;;;19.59;43.48
19457;BME280;9867;48.094;11.478;2023-04-22T10:10:33;94654.22;;;20.06;46.23
19457;BME280;9867;48.094;11.478;2023-04-22T10:13:03;94651.00;;;20.30;44.14
19457;BME280;9867;48.094;11.478;2023-04-22T10:15:32;94647.03;;;20.42;46.38
19457;BME280;9867;48.094;11.478;2023-04-22T10:18:04;94632.81;;;20.20;44.72
19457;BME280;9867;48.094;11.478;2023-04-22T10:20:35;94641.22;;;20.56;46.04
19457;BME280;9867;48.094;11.478;2023-04-22T10:23:05;94643.75;;;20.66;45.22
19457;BME280;9867;48.094;11.478;2023-04-22T10:25:33;94640.06;;;20.28;42.55
19457;BME280;9867;48.094;11.478;2023-04-22T10:28:02;94632.97;;;20.33;46.44
19457;BME280;9867;48.094;11.478;2023-04-22T10:30:31;94631.19;;;20.73;44.92
19457;BME280;9867;48.094;11.478;2023-04-22T10:33:38;94637.78;;;20.60;38.85
19457;BME280;9867;48.094;11.478;2023-04-22T10:36:08;94640.19;;;20.91;39.59
19457;BME280;9867;48.094;11.478;2023-04-22T10:38:39;94638.31;;;20.62;42.43
19457;BME280;9867;48.094;11.478;2023-04-22T10:41:12;94643.28;;;20.98;45.10
19457;BME280;9867;48.094;11.478;2023-04-22T10:43:41;94623.25;;;21.22;42.72
19457;BME280;9867;48.094;11.478;2023-04-22T10:49:15;94621.88;;;21.30;42.09
19457;BME280;9867;48.094;11.478;2023-04-22T10:51:47;94620.69;;;21.46;44.40
19457;BME280;9867;48.094;11.478;2023-04-22T10:57:14;94627.47;;;21.71;42.99
19457;BME280;9867;48.094;11.478;2023-04-22T10:59:50;94618.91;;;21.89;39.51
19457;BME280;9867;48.094;11.478;2023-04-22T11:02:20;94615.81;;;21.05;40.28
19457;BME280;9867;48.094;11.478;2023-04-22T11:04:50;94618.03;;;20.88;42.63
19457;BME280;9867;48.094;11.478;2023-04-22T11:07:29;94619.06;;;21.50;42.38
19457;BME280;9867;48.094;11.478;2023-04-22T11:10:01;94611.69;;;22.00;41.87
19457;BME280;9867;48.094;11.478;2023-04-22T11:12:42;94616.41;;;22.22;40.74
19457;BME280;9867;48.094;11.478;2023-04-22T11:15:12;94609.50;;;22.50;41.59
19457;BME280;9867;48.094;11.478;2023-04-22T11:17:42;94616.06;;;22.66;45.51
19457;BME280;9867;48.094;11.478;2023-04-22T11:20:12;94611.91;;;22.97;43.62
19457;BME280;9867;48.094;11.478;2023-04-22T11:22:44;94604.69;;;22.57;40.85
19457;BME280;9867;48.094;11.478;2023-04-22T11:25:12;94611.84;;;22.32;41.60
19457;BME280;9867;48.094;11.478;2023-04-22T11:27:41;94605.97;;;22.40;42.51
19457;BME280;9867;48.094;11.478;2023-04-22T11:30:11;94604.94;;;22.93;42.46
19457;BME280;9867;48.094;11.478;2023-04-22T11:32:41;94610.16;;;22.74;39.25
19457;BME280;9867;48.094;11.478;2023-04-22T11:35:12;94607.38;;;23.03;42.92
19457;BME280;9867;48.094;11.478;2023-04-22T11:37:43;94600.66;;;23.29;41.84
19457;BME280;9867;48.094;11.478;2023-04-22T11:40:12;94611.25;;;23.38;41.02
19457;BME280;9867;48.094;11.478;2023-04-22T11:42:56;94614.69;;;23.52;39.75
19457;BME280;9867;48.094;11.478;2023-04-22T11:45:27;94608.59;;;23.24;38.66
19457;BME280;9867;48.094;11.478;2023-04-22T11:47:55;94599.53;;;23.03;40.15
19457;BME280;9867;48.094;11.478;2023-04-22T11:50:26;94619.88;;;23.38;42.10
19457;BME280;9867;48.094;11.478;2023-04-22T11:52:56;94609.19;;;22.89;40.44
19457;BME280;9867;48.094;11.478;2023-04-22T11:55:26;94606.66;;;22.84;41.27
19457;BME280;9867;48.094;11.478;2023-04-22T11:57:58;94603.84;;;23.26;37.64
19457;BME280;9867;48.094;11.478;2023-04-22T12:00:31;94599.16;;;23.83;39.50
19457;BME280;9867;48.094;11.478;2023-04-22T12:03:00;94598.31;;;24.10;39.34
19457;BME280;9867;48.094;11.478;2023-04-22T12:05:38;94601.56;;;24.07;41.36
19457;BME280;9867;48.094;11.478;2023-04-22T12:08:09;94604.72;;;24.18;39.58
19457;BME280;9867;48.094;11.478;2023-04-22T12:10:42;94603.56;;;23.28;37.36
19457;BME280;9867;48.094;11.478;2023-04-22T12:13:17;94589.66;;;23.73;37.17
19457;BME280;9867;48.094;11.478;2023-04-22T12:15:45;94598.16;;;23.65;39.68
19457;BME280;9867;48.094;11.478;2023-04-22T12:18:13;94593.72;;;23.66;39.80
19457;BME280;9867;48.094;11.478;2023-04-22T12:20:42;94593.50;;;24.03;39.34
19457;BME280;9867;48.094;11.478;2023-04-22T12:23:11;94590.63;;;24.41;37.04
19457;BME280;9867;48.094;11.478;2023-04-22T12:25:41;94591.03;;;24.57;38.25
19457;BME280;9867;48.094;11.478;2023-04-22T12:28:10;94583.50;;;23.92;38.78
19457;BME280;9867;48.094;11.478;2023-04-22T12:30:39;94589.75;;;23.55;35.58
19457;BME280;9867;48.094;11.478;2023-04-22T12:33:07;94579.94;;;23.00;38.76
19457;BME280;9867;48.094;11.478;2023-04-22T12:35:36;94581.97;;;23.36;38.72
19457;BME280;9867;48.094;11.478;2023-04-22T12:38:05;94591.28;;;23.69;38.85
19457;BME280;9867;48.094;11.478;2023-04-22T12:40:33;94587.13;;;23.82;37.40
19457;BME280;9867;48.094;11.478;2023-04-22T12:43:00;94587.63;;;23.57;37.23
19457;BME280;9867;48.094;11.478;2023-04-22T12:45:31;94586.34;;;23.82;39.66
19457;BME280;9867;48.094;11.478;2023-04-22T12:47:59;94580.06;;;24.32;37.51
19457;BME280;9867;48.094;11.478;2023-04-22T12:50:27;94591.16;;;24.52;37.19
19457;BME280;9867;48.094;11.478;2023-04-22T12:52:55;94583.03;;;24.39;37.36
19457;BME280;9867;48.094;11.478;2023-04-22T12:55:24;94581.06;;;24.09;35.22
19457;BME280;9867;48.094;11.478;2023-04-22T12:57:53;94574.22;;;24.22;36.67
19457;BME280;9867;48.094;11.478;2023-04-22T13:00:21;94577.91;;;24.57;37.27
19457;BME280;9867;48.094;11.478;2023-04-22T13:02:50;94584.63;;;24.13;36.32
19457;BME280;9867;48.094;11.478;2023-04-22T13:05:18;94576.78;;;24.13;36.08
19457;BME280;9867;48.094;11.478;2023-04-22T13:07:46;94577.97;;;23.93;35.82
19457;BME280;9867;48.094;11.478;2023-04-22T13:10:33;94578.84;;;24.52;37.96
19457;BME280;9867;48.094;11.478;2023-04-22T13:13:01;94566.41;;;24.66;36.55
19457;BME280;9867;48.094;11.478;2023-04-22T13:15:43;94569.50;;;24.10;33.52
19457;BME280;9867;48.094;11.478;2023-04-22T13:18:11;94571.41;;;23.82;33.91
19457;BME280;9867;48.094;11.478;2023-04-22T13:20:39;94561.69;;;23.41;34.77